Afton, Minnesota
Current Conditions -  °F | °C
As of 3:51 AM on Saturday 25 Oct 2014 (Local Time) from K21D Reporting Station
Clear Clear  
Wind Chill: 55°   Ceiling: Unl
Heat Index: 55°   Visibility: 10mi
Dew Point: 37°   Wind: 10mph
Humidity: 51%   Direction: 320°NW
Pressure: 29.94"   Gusts: 16mph
Location:  44.9°N, 92.78°W
Report Text: K21D 250851Z AUTO 32009G14KT 10SM CLR 13/03 A2994 RMK AO2
Loading
Personal Weather Stations






























Interactive Weather Map
Tropical Storm Tracking
New forecast layout! Learn more

10-Day Weather Forecast

Advertisements
Track Severe Weather on mobile